createdAt,value
2018-04-11T00:00:11.597Z,10.73
2018-04-11T00:02:40.003Z,8.37
2018-04-11T00:05:08.393Z,10.53
2018-04-11T00:07:36.832Z,8.57
2018-04-11T00:10:05.239Z,9.47
2018-04-11T00:12:33.688Z,6.97
2018-04-11T00:15:02.100Z,6.50
2018-04-11T00:17:30.532Z,16.30
2018-04-11T00:19:58.976Z,9.00
2018-04-11T00:22:27.429Z,7.77
2018-04-11T00:24:55.806Z,6.87
2018-04-11T00:27:24.214Z,8.23
2018-04-11T00:29:52.667Z,10.33
2018-04-11T00:32:21.053Z,6.93
2018-04-11T00:34:49.480Z,4.93
2018-04-11T00:37:17.883Z,10.07
2018-04-11T00:39:46.320Z,10.90
2018-04-11T00:42:14.724Z,5.30
2018-04-11T00:44:43.155Z,10.60
2018-04-11T00:47:11.611Z,8.73
2018-04-11T00:49:40.046Z,8.97
2018-04-11T00:52:08.451Z,8.23
2018-04-11T00:54:36.862Z,8.93
2018-04-11T00:57:05.291Z,15.97
2018-04-11T00:59:33.715Z,11.03
2018-04-11T01:02:02.163Z,9.23
2018-04-11T01:04:30.624Z,14.23
2018-04-11T01:06:59.063Z,9.77
2018-04-11T01:09:27.468Z,7.63
2018-04-11T01:11:55.965Z,11.43
2018-04-11T01:14:24.394Z,7.90
2018-04-11T01:16:52.807Z,5.67
2018-04-11T01:19:21.263Z,11.70
2018-04-11T01:21:49.703Z,8.20
2018-04-11T01:24:18.125Z,6.37
2018-04-11T01:26:46.599Z,6.30
2018-04-11T01:29:15.016Z,11.60
2018-04-11T01:31:43.447Z,10.20
2018-04-11T01:34:11.860Z,8.87
2018-04-11T01:36:40.327Z,8.60
2018-04-11T01:39:08.777Z,9.83
2018-04-11T01:41:37.188Z,4.17
2018-04-11T01:44:05.746Z,9.30
2018-04-11T01:46:34.200Z,10.67
2018-04-11T01:49:02.598Z,11.13
2018-04-11T01:51:31.108Z,8.43
2018-04-11T01:53:59.514Z,10.20
2018-04-11T01:56:27.943Z,9.10
2018-04-11T01:58:56.339Z,10.53
2018-04-11T02:01:24.756Z,7.33
2018-04-11T02:03:53.158Z,8.93
2018-04-11T02:06:21.576Z,6.67
2018-04-11T02:08:50.006Z,12.43
2018-04-11T02:11:18.420Z,6.27
2018-04-11T02:13:46.839Z,7.43
2018-04-11T02:16:15.329Z,12.70
2018-04-11T02:18:43.755Z,5.23
2018-04-11T02:21:12.170Z,6.10
2018-04-11T02:23:40.607Z,9.07
2018-04-11T02:26:09.126Z,8.73
2018-04-11T02:28:37.614Z,13.90
2018-04-11T02:31:05.991Z,8.63
2018-04-11T02:33:34.432Z,7.03
2018-04-11T02:36:02.959Z,11.60
2018-04-11T02:38:31.455Z,18.03
2018-04-11T02:40:59.915Z,7.50
2018-04-11T02:43:28.296Z,10.33
2018-04-11T02:45:56.779Z,9.70
2018-04-11T02:48:25.179Z,15.40
2018-04-11T02:50:53.603Z,16.80
2018-04-11T02:53:22.065Z,15.57
2018-04-11T02:55:50.470Z,11.77
2018-04-11T02:58:18.907Z,9.03
2018-04-11T03:00:47.373Z,12.07
2018-04-11T03:03:15.811Z,14.37
2018-04-11T03:05:44.252Z,15.27
2018-04-11T03:08:12.739Z,15.30
2018-04-11T03:10:41.157Z,12.00
2018-04-11T03:13:09.581Z,15.00
2018-04-11T03:15:38.019Z,29.37
2018-04-11T03:18:06.409Z,12.80
2018-04-11T03:20:34.843Z,15.93
2018-04-11T03:23:03.262Z,17.20
2018-04-11T03:25:31.685Z,16.43
2018-04-11T03:28:00.219Z,8.70
2018-04-11T03:30:28.665Z,9.97
2018-04-11T03:32:57.144Z,21.20
2018-04-11T03:35:25.557Z,14.73
2018-04-11T03:37:53.970Z,15.83
2018-04-11T03:40:22.423Z,8.70
2018-04-11T03:42:50.816Z,13.43
2018-04-11T03:45:19.233Z,19.87
2018-04-11T03:47:47.638Z,13.43
2018-04-11T03:50:16.167Z,14.53
2018-04-11T03:52:44.554Z,19.83
2018-04-11T03:55:13.047Z,23.43
2018-04-11T03:57:41.446Z,21.53
2018-04-11T04:00:09.949Z,27.47
2018-04-11T04:02:38.326Z,16.33
2018-04-11T04:05:06.769Z,22.33
2018-04-11T04:07:35.253Z,22.57
2018-04-11T04:10:03.697Z,27.97
2018-04-11T04:12:32.090Z,24.73
2018-04-11T04:15:12.590Z,27.87
2018-04-11T04:17:52.767Z,37.70
2018-04-11T04:20:36.149Z,32.47
2018-04-11T04:23:05.435Z,28.10
2018-04-11T04:25:33.875Z,19.90
2018-04-11T04:28:02.343Z,24.00
2018-04-11T04:30:30.778Z,19.47
2018-04-11T04:32:59.514Z,25.47
2018-04-11T04:35:27.967Z,20.00
2018-04-11T04:37:56.400Z,23.10
2018-04-11T04:40:24.804Z,27.33
2018-04-11T04:42:53.220Z,37.10
2018-04-11T04:45:21.676Z,48.77
2018-04-11T04:47:50.131Z,48.17
2018-04-11T04:50:18.583Z,25.80
2018-04-11T04:52:46.975Z,19.60
2018-04-11T04:55:15.529Z,25.23
2018-04-11T04:57:43.955Z,23.77
2018-04-11T05:00:12.390Z,15.23
2018-04-11T05:02:40.796Z,22.73
2018-04-11T05:05:09.279Z,27.83
2018-04-11T05:07:37.810Z,29.40
2018-04-11T05:10:06.189Z,23.43
2018-04-11T05:12:34.657Z,22.27
2018-04-11T05:15:03.162Z,36.87
2018-04-11T05:17:31.588Z,33.03
2018-04-11T05:20:00.045Z,38.20
2018-04-11T05:22:28.477Z,41.10
2018-04-11T05:24:56.968Z,62.67
2018-04-11T05:27:25.395Z,38.67
2018-04-11T05:29:53.869Z,50.60
2018-04-11T05:32:22.271Z,42.60
2018-04-11T05:34:50.718Z,36.37
2018-04-11T05:37:19.191Z,46.77
2018-04-11T05:39:47.656Z,61.57
2018-04-11T05:42:16.085Z,60.80
2018-04-11T05:44:44.550Z,43.00
2018-04-11T05:47:12.960Z,53.63
2018-04-11T05:49:41.403Z,48.67
2018-04-11T05:52:09.844Z,46.87
2018-04-11T05:54:38.271Z,60.90
2018-04-11T05:57:06.736Z,75.03
2018-04-11T05:59:35.141Z,37.40
2018-04-11T06:02:03.519Z,51.80
2018-04-11T06:04:31.952Z,36.30
2018-04-11T06:07:00.339Z,48.47
2018-04-11T06:09:28.791Z,30.30
2018-04-11T06:11:57.220Z,33.77
2018-04-11T06:14:25.743Z,38.83
2018-04-11T06:16:54.145Z,34.37
2018-04-11T06:19:22.647Z,43.20
2018-04-11T06:21:51.167Z,37.30
2018-04-11T06:24:19.575Z,35.53
2018-04-11T06:26:48.055Z,32.97
2018-04-11T06:29:16.440Z,32.00
2018-04-11T06:31:44.937Z,37.30
2018-04-11T06:34:13.393Z,29.80
2018-04-11T06:36:42.064Z,40.70
2018-04-11T06:39:10.504Z,30.30
2018-04-11T06:41:38.942Z,22.83
2018-04-11T06:44:07.400Z,33.10
2018-04-11T06:46:35.840Z,29.27
2018-04-11T06:49:04.252Z,31.13
2018-04-11T06:51:32.745Z,28.63
2018-04-11T06:54:01.177Z,31.30
2018-04-11T06:56:29.605Z,37.13
2018-04-11T06:58:58.079Z,29.03
2018-04-11T07:01:26.522Z,31.30
2018-04-11T07:03:55.055Z,27.97
2018-04-11T07:06:24.050Z,22.57
2018-04-11T07:08:52.488Z,22.70
2018-04-11T07:11:21.012Z,34.43
2018-04-11T07:13:49.460Z,32.07
2018-04-11T07:16:17.880Z,20.97
2018-04-11T07:18:46.307Z,26.23
2018-04-11T07:21:14.711Z,23.10
2018-04-11T07:23:43.183Z,21.40
2018-04-11T07:26:11.622Z,17.47
2018-04-11T07:28:40.037Z,31.30
2018-04-11T07:31:08.496Z,18.97
2018-04-11T07:33:36.944Z,34.30
2018-04-11T07:36:05.379Z,23.23
2018-04-11T07:38:33.867Z,48.47
2018-04-11T07:41:02.316Z,25.97
2018-04-11T07:43:30.743Z,29.70
2018-04-11T07:45:59.241Z,25.53
2018-04-11T07:48:27.708Z,31.40
2018-04-11T07:50:56.201Z,32.87
2018-04-11T07:53:24.673Z,26.13
2018-04-11T07:55:53.071Z,29.00
2018-04-11T07:58:21.532Z,37.63
2018-04-11T08:00:49.984Z,36.37
2018-04-11T08:03:18.681Z,28.17
2018-04-11T08:05:47.060Z,22.23
2018-04-11T08:08:15.519Z,22.60
2018-04-11T08:10:43.955Z,34.27
2018-04-11T08:13:12.409Z,31.43
2018-04-11T08:15:40.961Z,31.80
2018-04-11T08:18:09.368Z,28.73
2018-04-11T08:20:37.888Z,29.67
2018-04-11T08:23:06.299Z,21.77
2018-04-11T08:25:34.747Z,22.50
2018-04-11T08:28:03.202Z,37.07
2018-04-11T08:30:31.678Z,35.57
2018-04-11T08:33:00.124Z,22.37
2018-04-11T08:35:28.565Z,22.27
2018-04-11T08:37:56.982Z,20.70
2018-04-11T08:40:25.483Z,27.63
2018-04-11T08:42:53.961Z,26.50
2018-04-11T08:45:22.380Z,17.90
2018-04-11T08:47:50.867Z,29.13
2018-04-11T08:50:19.290Z,22.57
2018-04-11T08:52:47.811Z,24.20
2018-04-11T08:55:16.247Z,31.73
2018-04-11T08:57:44.693Z,22.73
2018-04-11T09:00:13.093Z,25.67
2018-04-11T09:02:41.492Z,17.37
2018-04-11T09:05:09.919Z,15.67
2018-04-11T09:07:38.343Z,18.47
2018-04-11T09:10:06.803Z,13.30
2018-04-11T09:12:35.186Z,15.27
2018-04-11T09:15:03.626Z,21.60
2018-04-11T09:17:32.148Z,23.03
2018-04-11T09:20:00.602Z,30.17
2018-04-11T09:22:29.123Z,30.40
2018-04-11T09:24:57.554Z,18.10
2018-04-11T09:27:26.035Z,24.47
2018-04-11T09:29:54.508Z,39.33
2018-04-11T09:32:22.968Z,17.77
2018-04-11T09:34:51.475Z,29.70
2018-04-11T09:37:19.927Z,25.13
2018-04-11T09:39:48.391Z,47.03
2018-04-11T09:42:16.820Z,17.17
2018-04-11T09:44:45.268Z,41.57
2018-04-11T09:47:13.713Z,24.53
2018-04-11T09:49:42.144Z,25.07
2018-04-11T09:52:10.624Z,31.80
2018-04-11T09:54:39.055Z,16.60
2018-04-11T09:57:07.664Z,19.47
2018-04-11T09:59:36.132Z,27.93
2018-04-11T10:02:06.384Z,28.33
2018-04-11T10:04:34.906Z,25.90
2018-04-11T10:07:03.336Z,22.47
2018-04-11T10:09:31.787Z,17.50
2018-04-11T10:12:00.198Z,19.58
2018-04-11T10:14:28.700Z,21.67
2018-04-11T10:16:57.104Z,27.83
2018-04-11T10:19:25.505Z,23.92
2018-04-11T10:21:53.959Z,20.75
2018-04-11T10:24:22.428Z,32.70
2018-04-11T10:26:50.894Z,23.73
2018-04-11T10:29:19.323Z,20.77
2018-04-11T10:31:47.833Z,23.30
2018-04-11T10:34:16.398Z,22.37
2018-04-11T10:36:44.862Z,16.85
2018-04-11T10:39:13.337Z,16.25
2018-04-11T10:41:41.738Z,20.15
2018-04-11T10:44:10.267Z,14.10
2018-04-11T10:46:38.771Z,13.90
2018-04-11T10:49:07.167Z,14.20
2018-04-11T10:51:35.640Z,14.50
2018-04-11T10:54:04.081Z,8.10
2018-04-11T10:56:32.510Z,22.30
2018-04-11T10:59:00.924Z,21.02
2018-04-11T11:01:29.372Z,16.02
2018-04-11T11:03:57.843Z,34.58
2018-04-11T11:06:26.327Z,16.50
2018-04-11T11:08:54.815Z,13.73
2018-04-11T11:11:23.237Z,19.05
2018-04-11T11:13:51.704Z,20.25
2018-04-11T11:16:20.241Z,31.48
2018-04-11T11:18:48.665Z,17.80
2018-04-11T11:21:17.186Z,15.23
2018-04-11T11:23:45.624Z,14.13
2018-04-11T11:26:14.028Z,11.13
2018-04-11T11:28:42.502Z,19.58
2018-04-11T11:31:10.949Z,47.22
2018-04-11T11:33:39.338Z,23.80
2018-04-11T11:36:07.773Z,23.55
2018-04-11T11:38:36.237Z,14.23
2018-04-11T11:41:04.684Z,18.25
2018-04-11T11:43:33.153Z,17.12
2018-04-11T11:46:01.536Z,37.83
2018-04-11T11:48:30.029Z,47.55
2018-04-11T11:50:58.483Z,15.25
2018-04-11T11:53:26.954Z,18.33
2018-04-11T11:55:55.351Z,17.33
2018-04-11T11:58:23.831Z,33.63
2018-04-11T12:00:52.247Z,13.02
2018-04-11T12:03:20.688Z,21.45
2018-04-11T12:05:49.168Z,18.30
2018-04-11T12:08:17.752Z,18.58
2018-04-11T12:10:46.195Z,16.15
2018-04-11T12:13:14.628Z,13.62
2018-04-11T12:15:43.139Z,19.17
2018-04-11T12:18:11.547Z,17.30
2018-04-11T12:20:39.944Z,58.95
2018-04-11T12:23:08.412Z,31.45
2018-04-11T12:25:36.803Z,19.77
2018-04-11T12:28:05.275Z,18.12
2018-04-11T12:30:33.672Z,19.73
2018-04-11T12:33:02.085Z,20.42
2018-04-11T12:35:30.523Z,15.13
2018-04-11T12:37:58.918Z,15.60
2018-04-11T12:40:27.401Z,15.55
2018-04-11T12:42:55.823Z,20.15
2018-04-11T12:45:24.239Z,15.55
2018-04-11T12:47:52.680Z,16.35
2018-04-11T12:50:21.102Z,15.20
2018-04-11T12:52:49.582Z,22.50
2018-04-11T12:55:17.979Z,19.40
2018-04-11T12:57:46.423Z,30.85
2018-04-11T13:00:14.882Z,24.17
2018-04-11T13:02:43.296Z,29.73
2018-04-11T13:05:11.718Z,34.95
2018-04-11T13:07:40.189Z,20.17
2018-04-11T13:10:08.607Z,19.83
2018-04-11T13:12:37.149Z,21.58
2018-04-11T13:15:05.678Z,17.30
2018-04-11T13:17:34.136Z,16.83
2018-04-11T13:20:02.607Z,23.95
2018-04-11T13:22:30.995Z,33.70
2018-04-11T13:24:59.531Z,15.10
2018-04-11T13:27:27.945Z,19.77
2018-04-11T13:29:56.379Z,22.62
2018-04-11T13:32:24.747Z,23.42
2018-04-11T13:34:53.199Z,23.67
2018-04-11T13:37:21.619Z,25.33
2018-04-11T13:39:50.018Z,37.65
2018-04-11T13:42:18.436Z,25.25
2018-04-11T13:44:46.882Z,32.33
2018-04-11T13:47:15.326Z,32.13
2018-04-11T13:49:43.756Z,21.02
2018-04-11T13:52:12.227Z,30.00
2018-04-11T13:54:40.747Z,35.78
2018-04-11T13:57:09.235Z,26.25
2018-04-11T13:59:37.658Z,18.20
2018-04-11T14:02:06.119Z,21.20
2018-04-11T14:04:34.612Z,23.98
2018-04-11T14:07:03.055Z,25.95
2018-04-11T14:09:31.476Z,28.08
2018-04-11T14:11:59.936Z,35.42
2018-04-11T14:14:28.461Z,27.73
2018-04-11T14:16:56.856Z,32.97
2018-04-11T14:19:25.238Z,36.30
2018-04-11T14:21:53.706Z,28.92
2018-04-11T14:24:22.119Z,28.77
2018-04-11T14:26:50.560Z,25.52
2018-04-11T14:29:19.009Z,28.30
2018-04-11T14:31:47.452Z,17.20
2018-04-11T14:34:15.840Z,25.02
2018-04-11T14:36:44.276Z,28.90
2018-04-11T14:39:12.664Z,21.50
2018-04-11T14:41:41.123Z,26.48
2018-04-11T14:44:09.619Z,28.62
2018-04-11T14:46:38.107Z,56.95
2018-04-11T14:49:06.630Z,36.10
2018-04-11T14:51:35.075Z,34.25
2018-04-11T14:54:03.595Z,22.83
2018-04-11T14:56:32.036Z,20.88
2018-04-11T14:59:00.477Z,34.97
2018-04-11T15:01:28.867Z,28.60
2018-04-11T15:03:57.420Z,30.45
2018-04-11T15:06:25.868Z,32.78
2018-04-11T15:08:54.326Z,32.67
2018-04-11T15:11:23.510Z,24.98
2018-04-11T15:13:51.979Z,30.35
2018-04-11T15:16:20.379Z,22.45
2018-04-11T15:18:48.884Z,27.02
2018-04-11T15:21:17.315Z,33.88
2018-04-11T15:23:45.768Z,21.23
2018-04-11T15:26:14.203Z,17.92
2018-04-11T15:28:42.711Z,34.25
2018-04-11T15:31:11.137Z,42.28
2018-04-11T15:33:39.575Z,24.42
2018-04-11T15:36:07.959Z,24.37
2018-04-11T15:38:36.472Z,62.38
2018-04-11T15:41:04.989Z,50.25
2018-04-11T15:43:33.510Z,23.83
2018-04-11T15:46:01.985Z,17.00
2018-04-11T15:48:32.768Z,26.92
2018-04-11T15:51:01.178Z,19.80
2018-04-11T15:53:29.600Z,20.55
2018-04-11T15:55:58.426Z,30.75
2018-04-11T15:58:26.831Z,26.33
2018-04-11T16:00:55.260Z,24.45
2018-04-11T16:03:24.197Z,24.33
2018-04-11T16:05:52.576Z,17.77
2018-04-11T16:08:21.079Z,34.92
2018-04-11T16:10:50.019Z,40.33
2018-04-11T16:13:18.490Z,33.78
2018-04-11T16:15:46.992Z,30.52
2018-04-11T16:18:15.795Z,29.30
2018-04-11T16:20:44.188Z,31.92
2018-04-11T16:23:12.601Z,38.85
2018-04-11T16:25:41.455Z,44.55
2018-04-11T16:28:09.880Z,18.37
2018-04-11T16:30:38.284Z,27.60
2018-04-11T16:33:06.881Z,23.60
2018-04-11T16:35:35.295Z,24.50
2018-04-11T16:38:03.683Z,37.40
2018-04-11T16:40:34.325Z,19.60
2018-04-11T16:43:02.733Z,30.50
2018-04-11T16:45:31.171Z,32.77
2018-04-11T16:47:59.937Z,30.03
2018-04-11T16:50:28.361Z,35.13
2018-04-11T16:52:56.865Z,20.23
2018-04-11T16:55:25.371Z,28.10
2018-04-11T16:57:54.751Z,16.27
2018-04-11T17:00:23.376Z,19.23
2018-04-11T17:02:51.794Z,14.53
2018-04-11T17:05:20.284Z,13.67
2018-04-11T17:07:49.193Z,14.60
2018-04-11T17:10:17.764Z,15.13
2018-04-11T17:12:46.463Z,25.50
2018-04-11T17:15:19.676Z,17.03
2018-04-11T17:17:51.103Z,19.60
2018-04-11T17:20:20.286Z,18.03
2018-04-11T17:26:01.786Z,42.10
2018-04-11T17:28:42.115Z,25.37
2018-04-11T17:31:22.509Z,36.90
2018-04-11T17:33:52.685Z,44.20
2018-04-11T17:36:22.247Z,40.23
2018-04-11T17:38:50.819Z,30.43
2018-04-11T17:41:19.659Z,30.40
2018-04-11T17:43:49.010Z,26.80
2018-04-11T17:46:17.466Z,24.27
2018-04-11T17:48:46.771Z,25.10
2018-04-11T17:51:15.227Z,24.47
2018-04-11T17:53:43.703Z,23.13
2018-04-11T17:56:12.271Z,27.00
2018-04-11T17:58:41.057Z,14.17
2018-04-11T18:01:09.956Z,27.47
2018-04-11T18:03:38.843Z,23.27
2018-04-11T18:06:08.246Z,31.77
2018-04-11T18:08:37.755Z,28.23
2018-04-11T18:11:07.161Z,25.47
2018-04-11T18:13:36.509Z,37.20
2018-04-11T18:16:05.755Z,46.80
2018-04-11T18:18:34.397Z,19.17
2018-04-11T18:21:02.847Z,22.97
2018-04-11T18:23:31.282Z,31.53
2018-04-11T18:25:59.923Z,21.30
2018-04-11T18:28:28.375Z,22.60
2018-04-11T18:30:56.823Z,15.43
2018-04-11T18:33:25.307Z,23.63
2018-04-11T18:35:53.746Z,28.90
2018-04-11T18:38:22.195Z,20.93
2018-04-11T18:40:50.647Z,23.53
2018-04-11T18:43:19.092Z,20.73
2018-04-11T18:45:47.493Z,18.70
2018-04-11T18:48:15.905Z,20.43
2018-04-11T18:50:44.305Z,17.50
2018-04-11T18:53:12.747Z,19.17
2018-04-11T18:55:41.140Z,19.87
2018-04-11T18:58:09.599Z,23.50
2018-04-11T19:00:38.109Z,17.83
2018-04-11T19:03:06.511Z,27.50
2018-04-11T19:05:34.892Z,26.37
2018-04-11T19:08:03.349Z,34.33
2018-04-11T19:10:31.849Z,17.87
2018-04-11T19:13:00.238Z,27.13
2018-04-11T19:15:28.744Z,21.77
2018-04-11T19:17:57.200Z,25.87
2018-04-11T19:20:25.652Z,19.77
2018-04-11T19:22:54.097Z,18.83
2018-04-11T19:25:22.552Z,20.37
2018-04-11T19:27:50.976Z,25.37
2018-04-11T19:30:19.502Z,18.47
2018-04-11T19:32:47.970Z,24.50
2018-04-11T19:35:16.670Z,16.57
2018-04-11T19:37:45.215Z,26.00
2018-04-11T19:40:13.674Z,28.10
2018-04-11T19:42:42.321Z,22.53
2018-04-11T19:45:10.852Z,37.90
2018-04-11T19:47:39.371Z,32.30
2018-04-11T19:50:07.961Z,47.53
2018-04-11T19:52:36.395Z,30.13
2018-04-11T19:55:04.835Z,31.30
2018-04-11T19:57:33.307Z,33.50
2018-04-11T20:00:01.771Z,40.40
2018-04-11T20:02:30.216Z,40.87
2018-04-11T20:04:58.604Z,32.90
2018-04-11T20:07:27.076Z,44.67
2018-04-11T20:09:55.547Z,38.97
2018-04-11T20:12:23.936Z,28.03
2018-04-11T20:14:52.382Z,29.83
2018-04-11T20:17:20.875Z,27.50
2018-04-11T20:19:49.411Z,28.17
2018-04-11T20:22:17.852Z,31.70
2018-04-11T20:24:46.256Z,20.57
2018-04-11T20:27:14.699Z,30.87
2018-04-11T20:29:43.196Z,40.57
2018-04-11T20:32:11.614Z,29.33
2018-04-11T20:34:40.104Z,27.47
2018-04-11T20:37:08.521Z,30.30
2018-04-11T20:39:36.983Z,33.80
2018-04-11T20:42:05.494Z,29.23
2018-04-11T20:44:33.907Z,32.37
2018-04-11T20:47:02.401Z,32.57
2018-04-11T20:49:30.793Z,24.83
2018-04-11T20:51:59.224Z,27.30
2018-04-11T20:54:27.666Z,32.80
2018-04-11T20:56:56.076Z,19.10
2018-04-11T20:59:24.611Z,30.20
2018-04-11T21:01:53.074Z,20.33
2018-04-11T21:04:21.510Z,19.70
2018-04-11T21:06:49.963Z,24.70
2018-04-11T21:09:18.411Z,30.00
2018-04-11T21:11:46.856Z,19.33
2018-04-11T21:14:15.284Z,31.10
2018-04-11T21:16:43.704Z,34.77
2018-04-11T21:19:12.171Z,25.07
2018-04-11T21:21:40.617Z,19.20
2018-04-11T21:24:09.032Z,17.63
2018-04-11T21:26:37.475Z,22.93
2018-04-11T21:29:05.897Z,23.10
2018-04-11T21:31:34.336Z,17.60
2018-04-11T21:34:02.768Z,20.70
2018-04-11T21:36:31.236Z,18.43
2018-04-11T21:38:59.672Z,19.67
2018-04-11T21:41:28.083Z,15.10
2018-04-11T21:43:56.550Z,17.33
2018-04-11T21:46:24.954Z,23.37
2018-04-11T21:48:53.405Z,16.20
2018-04-11T21:51:21.797Z,21.70
2018-04-11T21:53:50.240Z,18.80
2018-04-11T21:56:18.672Z,21.23
2018-04-11T21:58:47.062Z,22.73
2018-04-11T22:01:15.473Z,18.80
2018-04-11T22:03:43.877Z,18.57
2018-04-11T22:06:12.344Z,19.60
2018-04-11T22:08:40.820Z,17.23
2018-04-11T22:11:09.228Z,22.40
2018-04-11T22:13:37.634Z,21.30
2018-04-11T22:16:06.084Z,20.50
2018-04-11T22:18:34.626Z,24.53
2018-04-11T22:21:03.083Z,23.80
2018-04-11T22:23:31.529Z,23.20
2018-04-11T22:25:59.930Z,22.20
2018-04-11T22:28:28.363Z,13.83
2018-04-11T22:30:56.802Z,22.53
2018-04-11T22:33:25.196Z,21.90
2018-04-11T22:35:53.651Z,14.57
2018-04-11T22:38:22.101Z,16.53
2018-04-11T22:40:50.527Z,30.63
2018-04-11T22:43:18.961Z,21.80
2018-04-11T22:45:47.400Z,16.93
2018-04-11T22:48:15.853Z,21.10
2018-04-11T22:50:44.389Z,18.20
2018-04-11T22:53:12.800Z,15.87
2018-04-11T22:55:41.240Z,21.07
2018-04-11T22:58:09.671Z,19.17
2018-04-11T23:00:38.188Z,17.47
2018-04-11T23:03:06.599Z,17.10
2018-04-11T23:05:34.996Z,16.07
2018-04-11T23:08:03.436Z,14.97
2018-04-11T23:10:31.903Z,23.30
2018-04-11T23:13:00.357Z,19.33
2018-04-11T23:15:28.856Z,16.27
2018-04-11T23:17:57.340Z,28.10
2018-04-11T23:20:25.831Z,18.53
2018-04-11T23:22:54.301Z,20.30
2018-04-11T23:25:22.821Z,14.77
2018-04-11T23:27:51.237Z,19.57
2018-04-11T23:30:19.656Z,17.00
2018-04-11T23:32:48.083Z,20.17
2018-04-11T23:35:16.565Z,23.03
2018-04-11T23:37:45.038Z,17.17
2018-04-11T23:40:13.479Z,10.63
2018-04-11T23:42:41.975Z,13.03
2018-04-11T23:45:10.380Z,14.47
2018-04-11T23:47:38.875Z,22.30
2018-04-11T23:50:07.349Z,22.10
2018-04-11T23:52:35.899Z,21.23
2018-04-11T23:55:04.355Z,15.50
2018-04-11T23:57:32.852Z,11.63
